createdAt,value
2018-01-21T00:01:17.733Z,9.60
2018-01-21T00:03:48.156Z,9.70
2018-01-21T00:06:18.955Z,9.70
2018-01-21T00:08:49.936Z,9.40
2018-01-21T00:11:21.578Z,9.40
2018-01-21T00:13:52.903Z,9.60
2018-01-21T00:16:24.329Z,9.60
2018-01-21T00:18:55.799Z,9.60
2018-01-21T00:21:27.394Z,9.20
2018-01-21T00:23:58.743Z,9.30
2018-01-21T00:26:29.719Z,9.10
2018-01-21T00:29:01.703Z,9.30
2018-01-21T00:31:34.149Z,9.10
2018-01-21T00:34:05.490Z,9.20
2018-01-21T00:36:37.057Z,9.20
2018-01-21T00:39:08.355Z,9.20
2018-01-21T00:41:39.192Z,9.20
2018-01-21T00:44:10.339Z,9.40
2018-01-21T00:46:42.596Z,9.10
2018-01-21T00:49:15.102Z,9.20
2018-01-21T00:51:46.454Z,9.10
2018-01-21T00:54:18.984Z,9.00
2018-01-21T00:56:49.976Z,9.00
2018-01-21T00:59:20.907Z,9.00
2018-01-21T01:01:53.162Z,9.30
2018-01-21T01:04:23.993Z,9.00
2018-01-21T01:06:54.843Z,8.70
2018-01-21T01:09:25.930Z,9.20
2018-01-21T01:11:56.476Z,8.90
2018-01-21T01:14:27.320Z,9.20
2018-01-21T01:16:58.483Z,9.20
2018-01-21T01:19:29.420Z,8.70
2018-01-21T01:22:00.491Z,8.80
2018-01-21T01:24:32.224Z,8.70
2018-01-21T01:27:03.500Z,8.80
2018-01-21T01:29:34.937Z,8.70
2018-01-21T01:32:06.990Z,8.90
2018-01-21T01:34:38.720Z,8.80
2018-01-21T01:37:11.252Z,8.70
2018-01-21T01:39:42.797Z,8.90
2018-01-21T01:42:14.302Z,8.90
2018-01-21T01:44:45.106Z,8.80
2018-01-21T01:47:16.223Z,8.70
2018-01-21T01:49:47.264Z,8.90
2018-01-21T01:52:19.628Z,8.90
2018-01-21T01:54:51.738Z,8.90
2018-01-21T01:57:22.390Z,8.60
2018-01-21T01:59:53.504Z,8.60
2018-01-21T02:02:24.620Z,8.80
2018-01-21T02:04:56.668Z,8.90
2018-01-21T02:07:27.712Z,8.90
2018-01-21T02:09:58.651Z,8.60
2018-01-21T02:12:29.932Z,8.70
2018-01-21T02:15:01.198Z,8.40
2018-01-21T02:17:31.973Z,8.30
2018-01-21T02:20:03.693Z,8.30
2018-01-21T02:22:34.818Z,8.30
2018-01-21T02:25:06.048Z,8.30
2018-01-21T02:27:37.273Z,8.30
2018-01-21T02:30:09.798Z,8.30
2018-01-21T02:32:41.659Z,8.50
2018-01-21T02:35:12.783Z,8.50
2018-01-21T02:37:43.328Z,8.30
2018-01-21T02:40:14.146Z,8.30
2018-01-21T02:42:45.154Z,8.50
2018-01-21T02:45:16.028Z,8.60
2018-01-21T02:47:47.937Z,8.30
2018-01-21T02:50:19.814Z,8.20
2018-01-21T02:52:50.545Z,8.00
2018-01-21T02:55:21.344Z,8.00
2018-01-21T02:57:52.211Z,8.20
2018-01-21T03:00:22.816Z,8.00
2018-01-21T03:02:54.604Z,7.70
2018-01-21T03:05:26.003Z,7.80
2018-01-21T03:07:56.762Z,7.80
2018-01-21T03:10:28.651Z,8.00
2018-01-21T03:12:59.876Z,8.10
2018-01-21T03:15:31.720Z,8.00
2018-01-21T03:18:02.909Z,7.90
2018-01-21T03:20:34.601Z,7.90
2018-01-21T03:23:06.487Z,7.90
2018-01-21T03:25:37.606Z,7.80
2018-01-21T03:28:08.264Z,7.90
2018-01-21T03:30:42.830Z,7.70
2018-01-21T03:33:14.130Z,7.70
2018-01-21T03:35:45.897Z,7.60
2018-01-21T03:38:16.781Z,7.50
2018-01-21T03:40:47.754Z,7.60
2018-01-21T03:43:18.836Z,7.60
2018-01-21T03:45:50.053Z,7.80
2018-01-21T03:48:21.570Z,7.60
2018-01-21T03:50:52.276Z,7.50
2018-01-21T03:53:23.563Z,7.60
2018-01-21T03:55:55.280Z,7.60
2018-01-21T03:58:26.305Z,7.20
2018-01-21T04:00:57.204Z,7.70
2018-01-21T04:03:27.734Z,7.50
2018-01-21T04:05:58.053Z,7.50
2018-01-21T04:08:35.487Z,7.80
2018-01-21T04:11:06.813Z,7.60
2018-01-21T04:13:38.565Z,7.50
2018-01-21T04:16:10.923Z,7.60
2018-01-21T04:18:42.460Z,7.50
2018-01-21T04:21:13.568Z,7.80
2018-01-21T04:23:44.212Z,7.60
2018-01-21T04:26:14.620Z,7.60
2018-01-21T04:28:44.886Z,7.60
2018-01-21T04:31:17.409Z,7.50
2018-01-21T04:33:47.595Z,7.60
2018-01-21T04:36:19.894Z,7.60
2018-01-21T04:38:50.712Z,7.60
2018-01-21T04:41:22.369Z,7.60
2018-01-21T04:43:54.421Z,7.50
2018-01-21T04:46:25.929Z,7.60
2018-01-21T04:48:57.707Z,7.60
2018-01-21T04:51:28.762Z,7.50
2018-01-21T04:53:59.012Z,7.70
2018-01-21T04:56:30.426Z,7.60
2018-01-21T04:59:01.712Z,7.60
2018-01-21T05:01:34.293Z,7.80
2018-01-21T05:04:05.414Z,7.60
2018-01-21T05:06:37.360Z,7.90
2018-01-21T05:09:09.395Z,8.20
2018-01-21T05:11:40.719Z,8.00
2018-01-21T05:14:10.947Z,8.00
2018-01-21T05:16:44.337Z,7.90
2018-01-21T05:19:14.697Z,8.10
2018-01-21T05:21:45.568Z,8.10
2018-01-21T05:24:16.612Z,8.10
2018-01-21T05:26:48.344Z,8.10
2018-01-21T05:29:19.598Z,8.10
2018-01-21T05:31:50.949Z,8.10
2018-01-21T05:34:21.497Z,8.40
2018-01-21T05:36:52.513Z,8.20
2018-01-21T05:39:23.700Z,8.20
2018-01-21T05:41:53.997Z,8.30
2018-01-21T05:44:25.186Z,8.20
2018-01-21T05:46:58.224Z,8.20
2018-01-21T05:49:28.959Z,8.30
2018-01-21T05:52:00.667Z,8.30
2018-01-21T05:54:32.082Z,8.30
2018-01-21T05:57:03.635Z,8.30
2018-01-21T05:59:34.290Z,8.50
2018-01-21T06:02:05.409Z,8.30
2018-01-21T06:04:36.397Z,8.30
2018-01-21T06:07:07.529Z,8.40
2018-01-21T06:09:38.720Z,8.30
2018-01-21T06:12:10.199Z,8.40
2018-01-21T06:14:41.914Z,8.40
2018-01-21T06:17:13.361Z,8.50
2018-01-21T06:19:45.104Z,8.50
2018-01-21T06:22:16.249Z,8.30
2018-01-21T06:24:48.755Z,8.30
2018-01-21T06:27:21.236Z,8.50
2018-01-21T06:29:52.203Z,8.30
2018-01-21T06:32:23.338Z,8.40
2018-01-21T06:34:54.997Z,8.30
2018-01-21T06:37:26.975Z,8.40
2018-01-21T06:39:58.073Z,8.30
2018-01-21T06:42:29.684Z,8.30
2018-01-21T06:45:01.408Z,8.50
2018-01-21T06:47:32.155Z,8.60
2018-01-21T06:50:03.679Z,8.40
2018-01-21T06:52:34.691Z,8.50
2018-01-21T06:55:05.367Z,8.30
2018-01-21T06:57:36.100Z,8.60
2018-01-21T07:00:07.262Z,8.30
2018-01-21T07:02:38.002Z,8.30
2018-01-21T07:05:08.910Z,8.60
2018-01-21T07:07:40.453Z,8.40
2018-01-21T07:10:11.485Z,8.60
2018-01-21T07:12:42.447Z,8.60
2018-01-21T07:15:14.094Z,8.30
2018-01-21T07:17:47.212Z,8.30
2018-01-21T07:20:18.341Z,8.30
2018-01-21T07:22:51.451Z,8.40
2018-01-21T07:25:22.829Z,8.30
2018-01-21T07:27:53.641Z,8.30
2018-01-21T07:30:25.386Z,8.30
2018-01-21T07:32:57.908Z,8.50
2018-01-21T07:35:29.264Z,8.20
2018-01-21T07:38:00.865Z,8.80
2018-01-21T07:40:32.437Z,8.40
2018-01-21T07:43:03.612Z,8.40
2018-01-21T07:45:34.624Z,8.60
2018-01-21T07:48:07.919Z,8.70
2018-01-21T07:50:38.694Z,8.70
2018-01-21T07:53:10.378Z,9.00
2018-01-21T07:55:41.192Z,8.80
2018-01-21T07:58:12.164Z,8.70
2018-01-21T08:00:43.413Z,9.30
2018-01-21T08:03:14.262Z,9.20
2018-01-21T08:05:45.361Z,9.10
2018-01-21T08:08:16.231Z,9.00
2018-01-21T08:10:48.204Z,9.00
2018-01-21T08:13:19.214Z,9.30
2018-01-21T08:15:50.315Z,9.30
2018-01-21T08:18:21.188Z,9.10
2018-01-21T08:20:52.294Z,9.10
2018-01-21T08:23:23.293Z,9.40
2018-01-21T08:25:54.410Z,9.20
2018-01-21T08:28:25.658Z,9.20
2018-01-21T08:30:57.960Z,9.10
2018-01-21T08:33:31.067Z,9.20
2018-01-21T08:36:07.926Z,9.20
2018-01-21T08:38:45.021Z,9.20
2018-01-21T08:41:22.196Z,9.30
2018-01-21T08:43:52.788Z,9.20
2018-01-21T08:46:23.508Z,9.20
2018-01-21T08:48:56.299Z,9.30
2018-01-21T08:51:28.987Z,9.50
2018-01-21T08:54:00.086Z,9.30
2018-01-21T08:56:31.160Z,9.10
2018-01-21T08:59:02.728Z,9.30
2018-01-21T09:01:33.557Z,9.30
2018-01-21T09:04:05.768Z,9.60
2018-01-21T09:06:36.744Z,9.50
2018-01-21T09:09:08.253Z,9.40
2018-01-21T09:11:39.609Z,9.40
2018-01-21T09:14:10.657Z,9.40
2018-01-21T09:16:41.645Z,9.30
2018-01-21T09:19:13.186Z,9.40
2018-01-21T09:21:44.798Z,9.60
2018-01-21T09:24:16.368Z,9.40
2018-01-21T09:26:47.257Z,9.60
2018-01-21T09:29:18.274Z,9.40
2018-01-21T09:31:49.285Z,9.70
2018-01-21T09:34:22.116Z,9.50
2018-01-21T09:36:53.880Z,9.60
2018-01-21T09:39:25.831Z,9.60
2018-01-21T09:41:57.489Z,9.20
2018-01-21T09:44:28.719Z,9.60
2018-01-21T09:47:01.204Z,9.40
2018-01-21T09:49:32.845Z,9.60
2018-01-21T09:52:04.004Z,9.40
2018-01-21T09:54:35.139Z,9.60
2018-01-21T09:57:07.110Z,9.70
2018-01-21T09:59:38.232Z,9.60
2018-01-21T10:02:10.128Z,9.50
2018-01-21T10:04:41.342Z,9.50
2018-01-21T10:07:11.781Z,9.50
2018-01-21T10:09:42.968Z,9.50
2018-01-21T10:12:13.873Z,9.50
2018-01-21T10:14:44.955Z,9.60
2018-01-21T10:17:16.056Z,9.70
2018-01-21T10:19:47.059Z,9.50
2018-01-21T10:22:18.991Z,9.60
2018-01-21T10:24:50.182Z,9.50
2018-01-21T10:27:22.094Z,9.50
2018-01-21T10:29:53.292Z,9.60
2018-01-21T10:32:25.476Z,9.60
2018-01-21T10:34:58.932Z,9.70
2018-01-21T10:37:30.178Z,9.70
2018-01-21T10:40:02.399Z,9.70
2018-01-21T10:42:33.244Z,9.70
2018-01-21T10:45:04.228Z,9.60
2018-01-21T10:47:36.057Z,9.60
2018-01-21T10:50:06.856Z,9.60
2018-01-21T10:52:38.071Z,9.60
2018-01-21T10:55:09.599Z,9.60
2018-01-21T10:57:42.150Z,9.60
2018-01-21T11:00:12.855Z,9.60
2018-01-21T11:02:43.291Z,9.60
2018-01-21T11:05:14.506Z,9.60
2018-01-21T11:07:45.596Z,9.60
2018-01-21T11:10:16.581Z,9.60
2018-01-21T11:12:48.497Z,9.50
2018-01-21T11:15:19.218Z,9.60
2018-01-21T11:17:50.188Z,9.70
2018-01-21T11:20:20.930Z,9.50
2018-01-21T11:22:53.158Z,9.50
2018-01-21T11:25:23.978Z,9.70
2018-01-21T11:27:55.055Z,9.60
2018-01-21T11:30:26.049Z,9.60
2018-01-21T11:32:57.075Z,9.60
2018-01-21T11:35:28.034Z,9.80
2018-01-21T11:37:59.378Z,9.70
2018-01-21T11:40:30.466Z,9.60
2018-01-21T11:43:01.873Z,9.60
2018-01-21T11:45:33.308Z,9.70
2018-01-21T11:48:05.335Z,9.70
2018-01-21T11:50:37.465Z,9.90
2018-01-21T11:53:08.379Z,9.80
2018-01-21T11:55:39.539Z,9.80
2018-01-21T11:58:11.042Z,9.80
2018-01-21T12:00:42.686Z,9.80
2018-01-21T12:03:13.909Z,10.00
2018-01-21T12:05:44.404Z,9.90
2018-01-21T12:08:15.274Z,10.00
2018-01-21T12:10:46.793Z,10.10
2018-01-21T12:13:17.983Z,9.90
2018-01-21T12:15:48.978Z,10.00
2018-01-21T12:18:19.996Z,10.10
2018-01-21T12:20:51.241Z,10.10
2018-01-21T12:23:22.114Z,10.20
2018-01-21T12:25:54.824Z,10.20
2018-01-21T12:28:26.361Z,10.10
2018-01-21T12:30:57.194Z,10.10
2018-01-21T12:33:27.699Z,10.00
2018-01-21T12:35:58.081Z,10.10
2018-01-21T12:38:29.971Z,10.10
2018-01-21T12:41:00.568Z,10.10
2018-01-21T12:43:31.790Z,10.00
2018-01-21T12:46:03.502Z,10.00
2018-01-21T12:48:34.705Z,9.90
2018-01-21T12:51:05.562Z,9.90
2018-01-21T12:53:36.224Z,9.80
2018-01-21T12:56:07.212Z,9.80
2018-01-21T12:58:38.683Z,9.70
2018-01-21T13:01:09.488Z,9.60
2018-01-21T13:03:40.454Z,9.60
2018-01-21T13:06:12.421Z,10.00
2018-01-21T13:08:43.497Z,9.70
2018-01-21T13:11:15.067Z,9.50
2018-01-21T13:13:46.064Z,9.80
2018-01-21T13:16:18.006Z,9.70
2018-01-21T13:18:50.748Z,9.90
2018-01-21T13:21:23.957Z,9.80
2018-01-21T13:23:54.882Z,9.80
2018-01-21T13:26:25.632Z,9.80
2018-01-21T13:28:57.779Z,9.90
2018-01-21T13:31:29.354Z,10.00
2018-01-21T13:34:01.083Z,9.90
2018-01-21T13:36:32.456Z,9.70
2018-01-21T13:39:04.330Z,10.00
2018-01-21T13:41:36.381Z,10.10
2018-01-21T13:44:08.144Z,9.90
2018-01-21T13:46:39.883Z,10.00
2018-01-21T13:49:11.069Z,9.90
2018-01-21T13:51:41.970Z,10.00
2018-01-21T13:54:13.325Z,9.80
2018-01-21T13:56:44.118Z,9.90
2018-01-21T13:59:16.323Z,9.80
2018-01-21T14:01:48.309Z,9.70
2018-01-21T14:04:19.437Z,9.70
2018-01-21T14:06:50.183Z,9.60
2018-01-21T14:09:21.721Z,9.50
2018-01-21T14:11:52.413Z,9.40
2018-01-21T14:14:23.443Z,9.30
2018-01-21T14:16:55.078Z,9.00
2018-01-21T14:19:25.930Z,8.80
2018-01-21T14:21:59.511Z,8.80
2018-01-21T14:24:30.555Z,9.00
2018-01-21T14:27:01.673Z,8.90
2018-01-21T14:29:31.950Z,8.40
2018-01-21T14:32:02.996Z,8.30
2018-01-21T14:34:34.574Z,8.50
2018-01-21T14:37:06.422Z,8.50
2018-01-21T14:39:37.542Z,8.30
2018-01-21T14:42:09.147Z,8.30
2018-01-21T14:44:40.547Z,8.50
2018-01-21T14:47:11.416Z,8.30
2018-01-21T14:49:43.981Z,8.30
2018-01-21T14:52:15.021Z,8.50
2018-01-21T14:54:46.507Z,8.40
2018-01-21T14:57:17.805Z,8.30
2018-01-21T14:59:49.962Z,8.30
2018-01-21T15:02:21.012Z,8.30
2018-01-21T15:04:52.087Z,8.40
2018-01-21T15:07:23.786Z,8.50
2018-01-21T15:09:54.109Z,8.20
2018-01-21T15:12:25.333Z,8.20
2018-01-21T15:14:56.010Z,8.20
2018-01-21T15:17:26.417Z,8.30
2018-01-21T15:19:57.285Z,8.30
2018-01-21T15:22:31.239Z,8.20
2018-01-21T15:25:03.072Z,8.20
2018-01-21T15:27:33.584Z,8.50
2018-01-21T15:30:05.581Z,8.50
2018-01-21T15:32:36.352Z,8.20
2018-01-21T15:35:07.465Z,8.40
2018-01-21T15:37:39.358Z,8.20
2018-01-21T15:40:10.972Z,8.40
2018-01-21T15:42:42.303Z,8.30
2018-01-21T15:45:14.562Z,8.20
2018-01-21T15:47:46.224Z,8.20
2018-01-21T15:50:17.149Z,8.20
2018-01-21T15:52:49.081Z,8.30
2018-01-21T15:55:20.047Z,8.40
2018-01-21T15:57:53.360Z,8.30
2018-01-21T16:00:24.216Z,8.30
2018-01-21T16:02:55.200Z,8.20
2018-01-21T16:05:26.818Z,8.30
2018-01-21T16:07:58.088Z,8.30
2018-01-21T16:10:29.746Z,8.20
2018-01-21T16:13:00.672Z,8.20
2018-01-21T16:15:31.721Z,8.40
2018-01-21T16:18:03.732Z,8.10
2018-01-21T16:20:34.697Z,8.40
2018-01-21T16:23:06.066Z,8.20
2018-01-21T16:25:36.983Z,8.20
2018-01-21T16:28:08.141Z,8.20
2018-01-21T16:30:39.203Z,8.20
2018-01-21T16:33:11.404Z,8.40
2018-01-21T16:35:42.710Z,8.10
2018-01-21T16:38:25.210Z,8.40
2018-01-21T16:40:56.320Z,8.50
2018-01-21T16:43:28.335Z,8.30
2018-01-21T16:45:59.067Z,8.30
2018-01-21T16:48:30.353Z,8.00
2018-01-21T16:51:01.738Z,8.20
2018-01-21T16:53:34.047Z,8.20
2018-01-21T16:56:05.245Z,8.20
2018-01-21T16:58:36.033Z,8.00
2018-01-21T17:01:08.718Z,8.30
2018-01-21T17:03:40.584Z,8.00
2018-01-21T17:06:12.401Z,8.00
2018-01-21T17:08:43.459Z,8.10
2018-01-21T17:11:15.229Z,8.10
2018-01-21T17:13:46.649Z,8.10
2018-01-21T17:16:17.768Z,8.00
2018-01-21T17:18:49.605Z,8.30
2018-01-21T17:21:21.031Z,8.50
2018-01-21T17:23:55.369Z,8.40
2018-01-21T17:26:27.084Z,8.20
2018-01-21T17:28:58.052Z,8.30
2018-01-21T17:31:28.520Z,8.50
2018-01-21T17:34:00.099Z,8.50
2018-01-21T17:36:30.990Z,8.40
2018-01-21T17:39:02.054Z,8.30
2018-01-21T17:41:33.438Z,8.40
2018-01-21T17:44:04.623Z,8.30
2018-01-21T17:46:35.925Z,8.50
2018-01-21T17:49:07.492Z,8.80
2018-01-21T17:51:38.147Z,8.30
2018-01-21T17:54:09.356Z,8.50
2018-01-21T17:56:40.972Z,8.40
2018-01-21T17:59:12.624Z,8.60
2018-01-21T18:01:43.903Z,8.30
2018-01-21T18:04:15.173Z,8.60
2018-01-21T18:06:47.397Z,8.80
2018-01-21T18:09:19.563Z,8.60
2018-01-21T18:11:50.529Z,8.80
2018-01-21T18:14:21.681Z,8.80
2018-01-21T18:16:52.712Z,8.70
2018-01-21T18:19:24.122Z,8.80
2018-01-21T18:21:56.068Z,8.80
2018-01-21T18:24:27.630Z,8.60
2018-01-21T18:26:59.202Z,9.20
2018-01-21T18:29:31.688Z,9.00
2018-01-21T18:32:04.248Z,8.90
2018-01-21T18:34:35.261Z,8.90
2018-01-21T18:37:06.838Z,9.20
2018-01-21T18:39:38.843Z,9.00
2018-01-21T18:42:10.270Z,8.70
2018-01-21T18:44:41.599Z,9.00
2018-01-21T18:47:12.648Z,9.30
2018-01-21T18:49:44.702Z,9.20
2018-01-21T18:52:16.166Z,9.10
2018-01-21T18:54:48.873Z,9.30
2018-01-21T18:57:20.365Z,9.10
2018-01-21T18:59:51.326Z,9.10
2018-01-21T19:02:22.372Z,9.20
2018-01-21T19:04:53.733Z,9.30
2018-01-21T19:07:24.656Z,9.20
2018-01-21T19:09:55.754Z,9.20
2018-01-21T19:12:26.672Z,9.10
2018-01-21T19:14:57.992Z,9.30
2018-01-21T19:17:30.088Z,9.00
2018-01-21T19:20:03.368Z,9.30
2018-01-21T19:22:34.273Z,9.10
2018-01-21T19:25:08.180Z,9.20
2018-01-21T19:27:40.955Z,9.40
2018-01-21T19:30:12.995Z,9.30
2018-01-21T19:32:45.073Z,9.60
2018-01-21T19:35:16.854Z,9.60
2018-01-21T19:37:48.675Z,9.60
2018-01-21T19:40:35.885Z,9.60
2018-01-21T19:43:08.848Z,9.40
2018-01-21T19:45:40.393Z,9.20
2018-01-21T19:48:11.920Z,9.70
2018-01-21T19:50:45.875Z,9.50
2018-01-21T19:53:16.863Z,9.40
2018-01-21T19:55:49.449Z,9.50
2018-01-21T19:58:20.299Z,9.10
2018-01-21T20:00:52.947Z,9.60
2018-01-21T20:03:24.867Z,9.60
2018-01-21T20:05:56.982Z,9.20
2018-01-21T20:08:27.247Z,9.30
2018-01-21T20:10:57.858Z,9.20
2018-01-21T20:13:28.421Z,9.20
2018-01-21T20:15:59.472Z,9.00
2018-01-21T20:18:30.726Z,9.20
2018-01-21T20:21:02.613Z,9.10
2018-01-21T20:23:33.652Z,9.10
2018-01-21T20:26:05.053Z,9.30
2018-01-21T20:28:37.245Z,9.20
2018-01-21T20:31:08.650Z,9.30
2018-01-21T20:33:40.123Z,9.30
2018-01-21T20:36:11.087Z,9.30
2018-01-21T20:38:42.588Z,9.10
2018-01-21T20:41:13.928Z,9.00
2018-01-21T20:43:44.983Z,9.00
2018-01-21T20:46:16.480Z,9.30
2018-01-21T20:48:48.033Z,9.10
2018-01-21T20:51:24.767Z,9.30
2018-01-21T20:54:00.794Z,9.30
2018-01-21T20:56:32.812Z,9.20
2018-01-21T20:59:05.204Z,9.00
2018-01-21T21:01:36.224Z,9.20
2018-01-21T21:04:07.187Z,9.30
2018-01-21T21:06:39.766Z,9.30
2018-01-21T21:09:11.144Z,9.10
2018-01-21T21:11:42.622Z,8.80
2018-01-21T21:14:13.146Z,9.00
2018-01-21T21:16:43.704Z,8.90
2018-01-21T21:19:14.499Z,9.30
2018-01-21T21:21:45.470Z,8.90
2018-01-21T21:24:17.529Z,9.10
2018-01-21T21:26:48.482Z,8.70
2018-01-21T21:29:19.676Z,9.30
2018-01-21T21:31:51.608Z,9.10
2018-01-21T21:34:22.860Z,9.40
2018-01-21T21:36:53.126Z,9.50
2018-01-21T21:39:23.423Z,9.40
2018-01-21T21:41:54.679Z,9.50
2018-01-21T21:44:25.854Z,9.60
2018-01-21T21:47:00.224Z,10.10
2018-01-21T21:49:31.536Z,10.00
2018-01-21T21:52:03.545Z,9.70
2018-01-21T21:54:34.277Z,9.70
2018-01-21T21:57:04.697Z,10.00
2018-01-21T21:59:36.192Z,9.80
2018-01-21T22:02:06.820Z,10.00
2018-01-21T22:04:37.212Z,9.80
2018-01-21T22:07:08.005Z,10.00
2018-01-21T22:09:38.494Z,9.70
2018-01-21T22:12:10.035Z,9.70
2018-01-21T22:14:41.172Z,9.70
2018-01-21T22:17:12.600Z,9.70
2018-01-21T22:19:44.014Z,9.70
2018-01-21T22:22:15.954Z,9.70
2018-01-21T22:24:47.242Z,9.60
2018-01-21T22:27:21.031Z,9.70
2018-01-21T22:29:52.133Z,9.60
2018-01-21T22:32:23.039Z,9.70
2018-01-21T22:34:54.399Z,10.00
2018-01-21T22:37:25.261Z,9.80
2018-01-21T22:39:56.217Z,9.60
2018-01-21T22:42:27.241Z,9.80
2018-01-21T22:44:58.812Z,10.00
2018-01-21T22:47:30.404Z,9.50
2018-01-21T22:50:01.624Z,9.60
2018-01-21T22:52:32.874Z,9.60
2018-01-21T22:55:04.960Z,9.60
2018-01-21T22:57:36.072Z,9.50
2018-01-21T23:00:07.542Z,9.60
2018-01-21T23:02:38.707Z,9.70
2018-01-21T23:05:09.482Z,9.60
2018-01-21T23:07:40.814Z,9.60
2018-01-21T23:10:12.966Z,9.30
2018-01-21T23:12:43.804Z,9.30
2018-01-21T23:15:15.079Z,9.40
2018-01-21T23:17:46.331Z,9.20
2018-01-21T23:20:24.022Z,9.30
2018-01-21T23:22:57.038Z,9.30
2018-01-21T23:25:28.946Z,9.30
2018-01-21T23:28:01.872Z,9.30
2018-01-21T23:30:32.277Z,9.60
2018-01-21T23:33:03.059Z,9.50
2018-01-21T23:35:34.632Z,9.40
2018-01-21T23:38:05.714Z,9.70
2018-01-21T23:40:38.330Z,9.80
2018-01-21T23:43:08.918Z,9.60
2018-01-21T23:45:41.466Z,9.60
2018-01-21T23:48:12.733Z,9.60
2018-01-21T23:50:44.259Z,9.70
2018-01-21T23:53:15.455Z,9.60
2018-01-21T23:55:46.299Z,9.20
2018-01-21T23:58:17.762Z,9.50
